createdAt,value
2022-08-09T00:00:06.336Z,42.36
2022-08-09T00:02:12.500Z,42.63
2022-08-09T00:04:33.948Z,42.81
2022-08-09T00:06:37.259Z,42.85
2022-08-09T00:08:39.492Z,42.61
2022-08-09T00:10:42.103Z,43.37
2022-08-09T00:12:44.432Z,43.36
2022-08-09T00:14:47.558Z,43.51
2022-08-09T00:16:54.545Z,43.27
2022-08-09T00:18:56.402Z,43.45
2022-08-09T00:20:58.867Z,43.95
2022-08-09T00:23:07.844Z,44.31
2022-08-09T00:25:23.593Z,44.72
2022-08-09T00:27:36.094Z,44.47
2022-08-09T00:30:10.417Z,44.50
2022-08-09T00:32:01.150Z,44.86
2022-08-09T00:34:04.609Z,44.46
2022-08-09T00:36:07.652Z,44.50
2022-08-09T00:38:12.815Z,44.61
2022-08-09T00:40:17.268Z,44.90
2022-08-09T00:44:13.140Z,45.01
2022-08-09T00:44:46.985Z,44.56
2022-08-09T00:46:56.550Z,44.99
2022-08-09T00:49:04.084Z,44.73
2022-08-09T00:51:10.368Z,45.40
2022-08-09T00:53:14.025Z,45.16
2022-08-09T00:56:03.343Z,45.28
2022-08-09T00:57:38.943Z,45.20
2022-08-09T00:59:46.846Z,45.25
2022-08-09T01:01:54.689Z,45.26
2022-08-09T01:04:04.833Z,45.28
2022-08-09T01:06:53.381Z,45.71
2022-08-09T01:08:58.320Z,45.52
2022-08-09T01:11:28.878Z,46.23
2022-08-09T01:13:58.962Z,45.67
2022-08-09T01:16:04.916Z,46.14
2022-08-09T01:18:14.369Z,46.20
2022-08-09T01:20:35.135Z,46.35
2022-08-09T01:22:55.986Z,45.95
2022-08-09T01:25:28.410Z,46.54
2022-08-09T01:27:34.113Z,45.97
2022-08-09T01:29:55.507Z,46.10
2022-08-09T01:32:31.624Z,46.33
2022-08-09T01:34:27.309Z,46.00
2022-08-09T01:36:32.006Z,46.27
2022-08-09T01:38:38.355Z,46.69
2022-08-09T01:40:45.193Z,45.83
2022-08-09T01:42:56.886Z,45.89
2022-08-09T01:45:00.578Z,46.14
2022-08-09T01:47:04.407Z,45.92
2022-08-09T01:49:12.743Z,46.30
2022-08-09T01:51:22.534Z,47.04
2022-08-09T01:53:29.242Z,46.44
2022-08-09T01:55:43.779Z,46.67
2022-08-09T01:57:50.806Z,46.94
2022-08-09T02:00:09.087Z,47.29
2022-08-09T02:02:31.061Z,46.92
2022-08-09T02:04:34.428Z,47.30
2022-08-09T02:07:02.012Z,47.91
2022-08-09T02:09:05.454Z,47.11
2022-08-09T02:11:16.761Z,47.01
2022-08-09T02:13:26.312Z,47.56
2022-08-09T02:15:49.511Z,47.21
2022-08-09T02:18:09.321Z,46.85
2022-08-09T02:20:25.131Z,46.60
2022-08-09T02:22:42.972Z,46.73
2022-08-09T02:24:53.722Z,46.61
2022-08-09T02:27:01.010Z,46.30
2022-08-09T02:29:12.566Z,46.93
2022-08-09T02:31:26.018Z,47.35
2022-08-09T02:33:58.212Z,47.66
2022-08-09T02:36:03.467Z,48.65
2022-08-09T02:38:09.688Z,48.41
2022-08-09T02:40:24.728Z,48.38
2022-08-09T02:42:37.191Z,47.83
2022-08-09T02:44:48.816Z,48.05
2022-08-09T02:46:53.743Z,48.68
2022-08-09T02:49:01.109Z,48.31
2022-08-09T02:51:09.246Z,48.02
2022-08-09T02:53:26.307Z,47.68
2022-08-09T02:55:46.928Z,47.34
2022-08-09T02:58:00.191Z,46.92
2022-08-09T03:00:25.745Z,47.21
2022-08-09T03:02:29.447Z,47.18
2022-08-09T03:04:36.540Z,46.81
2022-08-09T03:06:42.179Z,46.31
2022-08-09T03:08:49.364Z,47.00
2022-08-09T03:10:54.497Z,46.83
2022-08-09T03:12:58.023Z,47.56
2022-08-09T03:15:01.503Z,47.38
2022-08-09T03:17:05.581Z,47.89
2022-08-09T03:19:14.394Z,47.79
2022-08-09T03:21:36.436Z,47.32
2022-08-09T03:24:03.964Z,47.79
2022-08-09T03:26:06.917Z,47.83
2022-08-09T03:28:11.441Z,47.38
2022-08-09T03:30:30.083Z,47.51
2022-08-09T03:32:37.397Z,47.82
2022-08-09T03:34:40.323Z,47.81
2022-08-09T03:36:43.883Z,47.86
2022-08-09T03:39:00.353Z,48.02
2022-08-09T03:41:02.827Z,47.76
2022-08-09T03:43:06.162Z,47.95
2022-08-09T03:45:08.564Z,47.85
2022-08-09T03:47:10.387Z,48.76
2022-08-09T03:49:17.357Z,47.85
2022-08-09T03:51:57.535Z,49.50
2022-08-09T03:53:49.737Z,48.53
2022-08-09T03:55:52.955Z,48.60
2022-08-09T03:58:09.704Z,48.44
2022-08-09T04:00:18.440Z,48.99
2022-08-09T04:02:30.159Z,48.75
2022-08-09T04:04:38.656Z,49.16
2022-08-09T04:06:41.014Z,49.64
2022-08-09T04:08:50.757Z,49.69
2022-08-09T04:10:55.434Z,50.38
2022-08-09T04:13:01.191Z,50.36
2022-08-09T04:15:11.207Z,50.40
2022-08-09T04:17:13.846Z,50.55
2022-08-09T04:19:15.826Z,50.70
2022-08-09T04:21:38.526Z,51.21
2022-08-09T04:23:42.091Z,50.88
2022-08-09T04:25:56.382Z,50.64
2022-08-09T04:28:02.657Z,51.00
2022-08-09T04:30:06.195Z,50.86
2022-08-09T04:32:08.155Z,50.69
2022-08-09T04:34:10.562Z,50.95
2022-08-09T04:36:14.341Z,50.73
2022-08-09T04:38:21.194Z,50.44
2022-08-09T04:40:35.809Z,50.91
2022-08-09T04:42:38.759Z,50.96
2022-08-09T04:44:49.430Z,51.04
2022-08-09T04:46:59.296Z,51.10
2022-08-09T04:49:02.287Z,51.12
2022-08-09T04:51:04.231Z,50.88
2022-08-09T04:53:13.170Z,50.90
2022-08-09T04:55:15.517Z,50.87
2022-08-09T04:57:24.172Z,51.26
2022-08-09T04:59:27.095Z,50.99
2022-08-09T05:01:32.615Z,50.77
2022-08-09T05:03:43.324Z,51.26
2022-08-09T05:05:52.026Z,50.82
2022-08-09T05:07:54.517Z,51.32
2022-08-09T05:09:57.796Z,51.09
2022-08-09T05:12:05.004Z,51.40
2022-08-09T05:14:07.446Z,50.89
2022-08-09T05:16:10.975Z,51.40
2022-08-09T05:18:42.869Z,51.37
2022-08-09T05:20:38.905Z,51.62
2022-08-09T05:23:58.220Z,51.76
2022-08-09T05:25:04.272Z,51.71
2022-08-09T05:27:06.498Z,51.80
2022-08-09T05:29:17.579Z,51.75
2022-08-09T05:31:37.018Z,51.21
2022-08-09T05:33:45.288Z,51.52
2022-08-09T05:35:50.803Z,51.42
2022-08-09T05:37:52.895Z,51.55
2022-08-09T05:39:54.831Z,51.35
2022-08-09T05:42:01.763Z,51.60
2022-08-09T05:44:06.304Z,51.73
2022-08-09T05:46:08.183Z,50.81
2022-08-09T05:48:12.821Z,51.10
2022-08-09T05:50:25.347Z,50.74
2022-08-09T05:52:38.496Z,50.46
2022-08-09T05:54:40.717Z,50.20
2022-08-09T05:56:54.437Z,50.55
2022-08-09T05:59:00.383Z,50.16
2022-08-09T06:01:02.221Z,50.37
2022-08-09T06:03:10.578Z,50.25
2022-08-09T06:05:12.871Z,50.05
2022-08-09T06:07:21.432Z,49.96
2022-08-09T06:09:54.024Z,49.83
2022-08-09T06:11:56.892Z,49.96
2022-08-09T06:13:59.700Z,49.87
2022-08-09T06:16:04.952Z,49.96
2022-08-09T06:18:06.970Z,49.35
2022-08-09T06:20:13.226Z,49.13
2022-08-09T06:22:28.821Z,48.75
2022-08-09T06:24:34.505Z,48.57
2022-08-09T06:26:43.622Z,48.36
2022-08-09T06:28:47.250Z,47.80
2022-08-09T06:30:48.979Z,47.53
2022-08-09T06:33:00.409Z,47.42
2022-08-09T06:35:15.238Z,47.31
2022-08-09T06:37:17.128Z,46.86
2022-08-09T06:39:19.862Z,46.35
2022-08-09T06:41:22.436Z,46.40
2022-08-09T06:43:46.288Z,45.74
2022-08-09T06:46:04.754Z,45.68
2022-08-09T06:48:12.512Z,45.20
2022-08-09T06:50:19.239Z,45.12
2022-08-09T06:52:25.234Z,45.23
2022-08-09T06:54:27.291Z,44.21
2022-08-09T06:56:31.066Z,44.67
2022-08-09T07:00:47.692Z,43.63
2022-08-09T07:00:59.640Z,44.19
2022-08-09T07:03:05.998Z,43.98
2022-08-09T07:05:08.505Z,43.51
2022-08-09T07:07:12.083Z,43.92
2022-08-09T07:09:53.656Z,43.86
2022-08-09T07:11:54.743Z,43.25
2022-08-09T07:14:05.121Z,43.60
2022-08-09T07:16:43.270Z,43.44
2022-08-09T07:18:29.752Z,43.82
2022-08-09T07:20:33.263Z,43.94
2022-08-09T07:22:49.568Z,43.26
2022-08-09T07:24:55.441Z,43.54
2022-08-09T07:26:58.077Z,43.30
2022-08-09T07:29:11.955Z,43.07
2022-08-09T07:31:15.440Z,42.87
2022-08-09T07:33:17.925Z,42.60
2022-08-09T07:35:19.735Z,42.94
2022-08-09T07:37:22.057Z,42.78
2022-08-09T07:39:40.256Z,41.92
2022-08-09T07:41:43.833Z,42.11
2022-08-09T07:43:49.885Z,41.73
2022-08-09T07:46:02.008Z,42.04
2022-08-09T07:48:05.557Z,41.68
2022-08-09T07:50:09.298Z,40.89
2022-08-09T07:52:17.909Z,40.75
2022-08-09T07:54:28.225Z,40.72
2022-08-09T07:56:33.818Z,40.84
2022-08-09T07:58:35.995Z,40.39
2022-08-09T08:00:38.164Z,40.64
2022-08-09T08:02:59.249Z,40.90
2022-08-09T08:05:03.011Z,41.07
2022-08-09T08:08:44.385Z,40.73
2022-08-09T08:09:51.707Z,40.98
2022-08-09T08:12:24.094Z,40.18
2022-08-09T08:14:17.596Z,40.22
2022-08-09T08:16:31.876Z,40.03
2022-08-09T08:18:34.403Z,39.72
2022-08-09T08:20:38.911Z,40.09
2022-08-09T08:22:45.351Z,39.90
2022-08-09T08:24:55.679Z,39.19
2022-08-09T08:26:59.304Z,39.73
2022-08-09T08:29:01.101Z,39.54
2022-08-09T08:31:13.650Z,39.19
2022-08-09T08:33:23.833Z,39.02
2022-08-09T08:35:28.289Z,38.65
2022-08-09T08:37:41.189Z,38.96
2022-08-09T08:39:56.668Z,38.95
2022-08-09T08:41:59.078Z,38.93
2022-08-09T08:44:03.526Z,38.66
2022-08-09T08:46:32.309Z,38.08
2022-08-09T08:48:32.996Z,38.62
2022-08-09T08:50:35.307Z,38.46
2022-08-09T08:52:58.743Z,38.69
2022-08-09T08:55:03.699Z,37.73
2022-08-09T08:57:11.333Z,36.85
2022-08-09T08:59:19.027Z,37.80
2022-08-09T09:01:24.911Z,37.78
2022-08-09T09:03:37.883Z,36.99
2022-08-09T09:06:03.290Z,36.76
2022-08-09T09:08:04.064Z,36.45
2022-08-09T09:10:09.401Z,36.38
2022-08-09T09:12:16.697Z,35.91
2022-08-09T09:14:26.973Z,34.68
2022-08-09T09:16:34.455Z,34.72
2022-08-09T09:18:36.695Z,34.80
2022-08-09T09:20:38.946Z,34.90
2022-08-09T09:23:01.785Z,34.75
2022-08-09T09:26:04.239Z,35.11
2022-08-09T09:28:05.872Z,34.85
2022-08-09T09:32:15.897Z,35.32
2022-08-09T09:34:18.509Z,34.78
2022-08-09T09:36:21.973Z,33.41
2022-08-09T09:38:39.012Z,34.13
2022-08-09T09:40:46.319Z,33.33
2022-08-09T09:42:56.863Z,33.34
2022-08-09T09:45:01.242Z,33.71
2022-08-09T09:47:16.468Z,33.17
2022-08-09T09:49:32.003Z,34.00
2022-08-09T09:51:51.276Z,33.99
2022-08-09T09:54:20.326Z,33.23
2022-08-09T09:56:34.588Z,33.40
2022-08-09T09:58:49.128Z,32.74
2022-08-09T10:00:58.906Z,32.89
2022-08-09T10:03:11.742Z,32.92
2022-08-09T10:05:16.250Z,32.87
2022-08-09T10:07:29.953Z,32.87
2022-08-09T10:09:54.795Z,33.10
2022-08-09T10:12:11.984Z,32.67
2022-08-09T10:14:30.665Z,32.54
2022-08-09T10:16:58.232Z,32.61
2022-08-09T10:19:10.207Z,32.84
2022-08-09T10:21:12.063Z,32.50
2022-08-09T10:23:21.988Z,32.78
2022-08-09T10:25:24.608Z,32.42
2022-08-09T10:27:44.878Z,32.50
2022-08-09T10:30:28.421Z,32.09
2022-08-09T10:32:42.243Z,32.49
2022-08-09T10:34:47.001Z,32.64
2022-08-09T10:36:56.872Z,32.75
2022-08-09T10:39:00.171Z,32.76
2022-08-09T10:41:02.687Z,32.28
2022-08-09T10:43:08.133Z,32.25
2022-08-09T10:45:16.069Z,32.11
2022-08-09T10:48:16.936Z,31.78
2022-08-09T10:50:31.419Z,31.97
2022-08-09T10:52:52.500Z,32.18
2022-08-09T10:54:54.387Z,32.26
2022-08-09T10:57:11.079Z,32.60
2022-08-09T10:59:23.375Z,32.00
2022-08-09T11:03:15.302Z,32.40
2022-08-09T11:04:27.886Z,32.04
2022-08-09T11:06:33.357Z,32.29
2022-08-09T11:08:46.981Z,32.20
2022-08-09T11:10:56.033Z,32.09
2022-08-09T11:13:49.369Z,32.35
2022-08-09T11:15:50.990Z,32.63
2022-08-09T11:18:04.060Z,32.58
2022-08-09T11:20:20.205Z,32.68
2022-08-09T11:22:40.285Z,32.72
2022-08-09T11:25:08.175Z,32.61
2022-08-09T11:28:02.963Z,32.41
2022-08-09T11:30:32.090Z,32.27
2022-08-09T11:32:41.313Z,31.99
2022-08-09T11:34:51.576Z,32.21
2022-08-09T11:36:56.818Z,31.95
2022-08-09T11:39:01.966Z,31.70
2022-08-09T11:41:05.418Z,32.61
2022-08-09T11:43:08.060Z,32.14
2022-08-09T11:45:21.742Z,32.37
2022-08-09T11:47:23.716Z,32.11
2022-08-09T11:50:54.109Z,32.36
2022-08-09T11:53:03.321Z,32.42
2022-08-09T11:54:41.981Z,32.55
2022-08-09T11:56:48.083Z,32.68
2022-08-09T11:58:56.098Z,32.43
2022-08-09T12:01:00.198Z,32.65
2022-08-09T12:03:10.014Z,32.59
2022-08-09T12:05:37.238Z,32.69
2022-08-09T12:07:42.298Z,32.78
2022-08-09T12:09:50.970Z,32.87
2022-08-09T12:12:04.106Z,32.43
2022-08-09T12:14:36.665Z,32.46
2022-08-09T12:16:39.836Z,32.09
2022-08-09T12:18:53.836Z,31.88
2022-08-09T12:20:56.479Z,31.74
2022-08-09T12:23:02.591Z,31.70
2022-08-09T12:25:15.133Z,31.44
2022-08-09T12:28:58.634Z,31.67
2022-08-09T12:29:58.671Z,31.08
2022-08-09T12:32:11.659Z,31.06
2022-08-09T12:34:13.696Z,31.32
2022-08-09T12:36:31.239Z,31.16
2022-08-09T12:38:38.140Z,31.62
2022-08-09T12:40:45.802Z,31.67
2022-08-09T12:42:50.461Z,31.79
2022-08-09T12:44:54.569Z,31.69
2022-08-09T12:46:57.060Z,32.01
2022-08-09T12:48:59.095Z,32.01
2022-08-09T12:51:03.998Z,32.34
2022-08-09T12:53:18.335Z,32.37
2022-08-09T12:56:11.450Z,32.47
2022-08-09T12:57:49.243Z,32.22
2022-08-09T13:00:03.049Z,32.03
2022-08-09T13:02:09.266Z,32.16
2022-08-09T13:04:36.293Z,31.82
2022-08-09T13:06:42.123Z,32.33
2022-08-09T13:09:01.304Z,32.40
2022-08-09T13:11:23.315Z,31.90
2022-08-09T13:14:37.869Z,31.96
2022-08-09T13:16:08.101Z,32.41
2022-08-09T13:18:17.574Z,32.43
2022-08-09T13:20:37.899Z,32.51
2022-08-09T13:23:01.762Z,33.06
2022-08-09T13:25:19.623Z,33.09
2022-08-09T13:27:31.439Z,32.96
2022-08-09T13:30:02.781Z,33.35
2022-08-09T13:32:13.287Z,32.92
2022-08-09T13:34:20.245Z,32.21
2022-08-09T13:36:24.639Z,32.17
2022-08-09T13:38:56.734Z,32.07
2022-08-09T13:41:50.894Z,32.03
2022-08-09T13:43:22.554Z,32.25
2022-08-09T13:46:42.579Z,32.79
2022-08-09T13:47:59.889Z,32.97
2022-08-09T13:50:12.508Z,33.74
2022-08-09T13:52:14.777Z,34.17
2022-08-09T13:54:20.248Z,35.19
2022-08-09T13:56:28.130Z,35.28
2022-08-09T13:58:29.998Z,35.98
2022-08-09T14:00:37.936Z,36.58
2022-08-09T14:03:03.636Z,37.29
2022-08-09T14:05:12.858Z,37.25
2022-08-09T14:07:42.216Z,37.72
2022-08-09T14:09:44.183Z,38.68
2022-08-09T14:11:47.685Z,38.74
2022-08-09T14:14:23.613Z,41.43
2022-08-09T14:16:16.081Z,41.62
2022-08-09T14:18:19.820Z,41.04
2022-08-09T14:20:30.379Z,45.17
2022-08-09T14:22:33.014Z,45.14
2022-08-09T14:24:35.305Z,44.57
2022-08-09T14:26:37.900Z,44.60
2022-08-09T14:28:39.884Z,43.92
2022-08-09T14:30:42.504Z,44.57
2022-08-09T14:32:44.377Z,43.94
2022-08-09T14:34:46.243Z,45.49
2022-08-09T14:36:57.317Z,45.33
2022-08-09T14:39:03.382Z,44.51
2022-08-09T14:41:34.917Z,45.00
2022-08-09T14:43:46.895Z,44.84
2022-08-09T14:46:56.091Z,44.85
2022-08-09T14:48:14.458Z,45.15
2022-08-09T14:50:17.522Z,47.58
2022-08-09T14:52:19.426Z,46.39
2022-08-09T14:54:22.358Z,46.36
2022-08-09T14:56:26.789Z,46.33
2022-08-09T14:58:29.121Z,46.28
2022-08-09T15:00:36.259Z,46.25
2022-08-09T15:02:39.076Z,45.66
2022-08-09T15:04:42.074Z,46.36
2022-08-09T15:06:49.690Z,46.46
2022-08-09T15:08:56.509Z,45.65
2022-08-09T15:11:01.393Z,46.69
2022-08-09T15:13:08.730Z,46.50
2022-08-09T15:15:11.254Z,46.15
2022-08-09T15:17:15.741Z,46.98
2022-08-09T15:19:19.972Z,47.12
2022-08-09T15:21:57.974Z,47.96
2022-08-09T15:24:03.599Z,48.12
2022-08-09T15:26:09.124Z,47.57
2022-08-09T15:28:28.193Z,48.08
2022-08-09T15:31:00.390Z,47.76
2022-08-09T15:32:52.907Z,48.50
2022-08-09T15:34:55.432Z,48.70
2022-08-09T15:36:58.878Z,48.97
2022-08-09T15:39:00.971Z,49.68
2022-08-09T15:41:09.334Z,49.34
2022-08-09T15:43:13.251Z,49.68
2022-08-09T15:45:21.754Z,49.88
2022-08-09T15:47:31.907Z,51.61
2022-08-09T15:50:00.562Z,50.54
2022-08-09T15:52:08.150Z,52.37
2022-08-09T15:54:19.331Z,52.29
2022-08-09T15:56:29.254Z,51.88
2022-08-09T15:58:33.031Z,51.70
2022-08-09T16:00:34.890Z,51.83
2022-08-09T16:02:37.283Z,51.60
2022-08-09T16:04:39.356Z,52.01
2022-08-09T16:06:50.332Z,51.95
2022-08-09T16:08:52.552Z,52.80
2022-08-09T16:10:56.469Z,52.15
2022-08-09T16:12:59.018Z,51.95
2022-08-09T16:15:02.731Z,52.95
2022-08-09T16:17:04.745Z,52.41
2022-08-09T16:19:09.908Z,52.19
2022-08-09T16:21:11.722Z,52.34
2022-08-09T16:23:14.301Z,52.36
2022-08-09T16:25:36.877Z,53.00
2022-08-09T16:27:41.963Z,53.13
2022-08-09T16:29:49.956Z,53.85
2022-08-09T16:32:19.048Z,53.42
2022-08-09T16:34:20.198Z,52.99
2022-08-09T16:36:27.304Z,52.97
2022-08-09T16:38:29.645Z,52.95
2022-08-09T16:40:41.087Z,53.11
2022-08-09T16:42:45.287Z,52.64
2022-08-09T16:44:47.512Z,52.68
2022-08-09T16:46:55.017Z,52.76
2022-08-09T16:49:12.538Z,52.69
2022-08-09T16:51:19.767Z,52.72
2022-08-09T16:53:22.879Z,52.26
2022-08-09T16:55:31.536Z,52.15
2022-08-09T16:58:09.169Z,52.94
2022-08-09T17:00:13.987Z,52.49
2022-08-09T17:02:17.843Z,53.85
2022-08-09T17:04:28.283Z,52.98
2022-08-09T17:06:33.305Z,52.87
2022-08-09T17:08:44.993Z,53.26
2022-08-09T17:10:57.357Z,52.02
2022-08-09T17:12:59.727Z,52.43
2022-08-09T17:15:02.350Z,54.00
2022-08-09T17:17:27.322Z,53.77
2022-08-09T17:19:46.503Z,54.55
2022-08-09T17:21:54.521Z,54.92
2022-08-09T17:24:27.529Z,53.79
2022-08-09T17:26:31.670Z,54.01
2022-08-09T17:28:40.341Z,53.67
2022-08-09T17:30:47.547Z,53.33
2022-08-09T17:32:50.069Z,53.51
2022-08-09T17:35:01.593Z,53.78
2022-08-09T17:37:19.577Z,53.46
2022-08-09T17:39:24.903Z,53.47
2022-08-09T17:41:38.881Z,53.46
2022-08-09T17:43:42.196Z,53.79
2022-08-09T17:46:06.113Z,54.64
2022-08-09T17:48:07.382Z,55.54
2022-08-09T17:50:17.099Z,54.84
2022-08-09T17:52:32.528Z,55.15
2022-08-09T17:54:34.467Z,54.84
2022-08-09T17:56:37.556Z,54.56
2022-08-09T17:58:42.939Z,55.39
2022-08-09T18:00:47.958Z,55.09
2022-08-09T18:02:57.978Z,54.98
2022-08-09T18:05:00.461Z,55.04
2022-08-09T18:07:23.740Z,54.72
2022-08-09T18:09:40.158Z,55.67
2022-08-09T18:12:05.674Z,55.72
2022-08-09T18:14:13.357Z,55.96
2022-08-09T18:16:17.471Z,55.23
2022-08-09T18:18:32.725Z,56.58
2022-08-09T18:20:57.102Z,56.16
2022-08-09T18:22:56.657Z,55.83
2022-08-09T18:24:58.384Z,56.88
2022-08-09T18:27:01.085Z,56.35
2022-08-09T18:30:38.123Z,55.82
2022-08-09T18:31:51.517Z,55.82
2022-08-09T18:33:53.498Z,55.78
2022-08-09T18:36:00.175Z,55.70
2022-08-09T18:38:02.332Z,54.93
2022-08-09T18:40:04.966Z,54.67
2022-08-09T18:42:08.743Z,54.38
2022-08-09T18:44:14.000Z,54.17
2022-08-09T18:46:51.309Z,53.77
2022-08-09T18:48:37.641Z,54.16
2022-08-09T18:50:40.189Z,53.64
2022-08-09T18:52:44.025Z,53.71
2022-08-09T18:54:52.492Z,53.42
2022-08-09T18:56:55.323Z,53.32
2022-08-09T18:58:57.409Z,53.14
2022-08-09T19:01:00.317Z,53.00
2022-08-09T19:03:02.534Z,53.14
2022-08-09T19:05:19.693Z,52.96
2022-08-09T19:07:26.237Z,52.94
2022-08-09T19:10:13.039Z,52.73
2022-08-09T19:11:50.634Z,52.45
2022-08-09T19:13:54.603Z,52.23
2022-08-09T19:16:02.029Z,51.80
2022-08-09T19:18:16.909Z,52.33
2022-08-09T19:20:19.238Z,51.73
2022-08-09T19:22:24.638Z,51.64
2022-08-09T19:24:32.568Z,51.77
2022-08-09T19:26:41.824Z,51.17
2022-08-09T19:28:50.926Z,51.19
2022-08-09T19:30:54.901Z,51.24
2022-08-09T19:32:57.490Z,50.60
2022-08-09T19:35:01.014Z,50.86
2022-08-09T19:37:04.302Z,50.72
2022-08-09T19:39:06.349Z,50.77
2022-08-09T19:41:08.537Z,50.75
2022-08-09T19:43:40.029Z,50.85
2022-08-09T19:45:40.573Z,50.62
2022-08-09T19:47:44.769Z,50.13
2022-08-09T19:50:09.092Z,50.41
2022-08-09T19:52:08.654Z,51.05
2022-08-09T19:54:10.934Z,50.18
2022-08-09T19:56:15.817Z,50.39
2022-08-09T19:58:17.786Z,50.24
2022-08-09T20:00:31.719Z,50.17
2022-08-09T20:04:11.399Z,50.19
2022-08-09T20:04:57.712Z,50.27
2022-08-09T20:07:00.264Z,50.81
2022-08-09T20:09:06.019Z,50.41
2022-08-09T20:11:08.127Z,50.10
2022-08-09T20:13:10.698Z,50.70
2022-08-09T20:16:34.446Z,50.56
2022-08-09T20:17:41.344Z,50.22
2022-08-09T20:19:54.131Z,50.35
2022-08-09T20:21:59.925Z,49.91
2022-08-09T20:24:03.053Z,49.81
2022-08-09T20:26:06.852Z,50.25
2022-08-09T20:28:08.803Z,50.05
2022-08-09T20:30:14.920Z,50.02
2022-08-09T20:32:30.973Z,50.26
2022-08-09T20:34:35.465Z,50.33
2022-08-09T20:36:39.678Z,49.83
2022-08-09T20:39:28.387Z,50.19
2022-08-09T20:41:05.949Z,50.18
2022-08-09T20:43:18.667Z,51.22
2022-08-09T20:45:56.465Z,50.38
2022-08-09T20:47:48.805Z,50.66
2022-08-09T20:49:51.160Z,50.77
2022-08-09T20:51:54.351Z,51.36
2022-08-09T20:53:56.394Z,51.21
2022-08-09T20:56:02.608Z,52.09
2022-08-09T20:58:08.095Z,52.06
2022-08-09T21:00:31.810Z,52.01
2022-08-09T21:02:35.095Z,52.33
2022-08-09T21:05:54.686Z,52.65
2022-08-09T21:06:59.137Z,51.80
2022-08-09T21:09:14.558Z,52.13
2022-08-09T21:13:59.807Z,51.85
2022-08-09T21:16:02.095Z,51.81
2022-08-09T21:18:10.997Z,51.32
2022-08-09T21:20:23.076Z,51.59
2022-08-09T21:22:38.429Z,52.11
2022-08-09T21:25:00.018Z,51.91
2022-08-09T21:27:10.196Z,51.94
2022-08-09T21:29:23.924Z,51.96
2022-08-09T21:31:48.948Z,52.00
2022-08-09T21:33:52.479Z,51.85
2022-08-09T21:35:54.873Z,51.97
2022-08-09T21:38:02.779Z,52.14
2022-08-09T21:40:05.657Z,51.90
2022-08-09T21:42:12.971Z,51.98
2022-08-09T21:44:15.364Z,52.04
2022-08-09T21:46:35.449Z,51.60
2022-08-09T21:48:39.046Z,51.79
2022-08-09T21:50:49.656Z,51.58
2022-08-09T21:52:54.230Z,52.16
2022-08-09T21:54:59.613Z,52.64
2022-08-09T21:57:06.384Z,52.77
2022-08-09T21:59:27.348Z,53.03
2022-08-09T22:02:00.411Z,53.41
2022-08-09T22:04:03.740Z,53.26
2022-08-09T22:06:05.663Z,53.33
2022-08-09T22:08:13.257Z,53.68
2022-08-09T22:10:22.946Z,53.54
2022-08-09T22:12:31.259Z,53.55
2022-08-09T22:14:33.802Z,53.47
2022-08-09T22:16:37.453Z,53.92
2022-08-09T22:18:53.664Z,53.30
2022-08-09T22:20:56.844Z,53.66
2022-08-09T22:22:59.577Z,54.03
2022-08-09T22:26:04.459Z,54.37
2022-08-09T22:27:23.956Z,54.53
2022-08-09T22:29:34.511Z,55.21
2022-08-09T22:31:57.102Z,55.14
2022-08-09T22:33:59.650Z,55.10
2022-08-09T22:36:03.727Z,55.14
2022-08-09T22:38:07.677Z,54.88
2022-08-09T22:40:20.099Z,55.11
2022-08-09T22:42:23.388Z,56.03
2022-08-09T22:44:25.961Z,55.85
2022-08-09T22:48:13.370Z,55.29
2022-08-09T22:49:01.871Z,55.09
2022-08-09T22:51:17.877Z,54.82
2022-08-09T22:53:26.079Z,54.94
2022-08-09T22:56:30.654Z,54.70
2022-08-09T22:58:08.201Z,54.84
2022-08-09T23:00:12.037Z,55.42
2022-08-09T23:02:15.942Z,55.38
2022-08-09T23:04:22.501Z,55.14
2022-08-09T23:06:47.353Z,55.72
2022-08-09T23:08:50.791Z,55.57
2022-08-09T23:10:52.713Z,55.79
2022-08-09T23:12:54.561Z,55.60
2022-08-09T23:14:56.310Z,55.76
2022-08-09T23:16:58.244Z,55.40
2022-08-09T23:19:00.863Z,55.71
2022-08-09T23:21:02.842Z,55.68
2022-08-09T23:23:05.697Z,55.88
2022-08-09T23:25:08.107Z,55.04
2022-08-09T23:27:10.119Z,55.58
2022-08-09T23:29:14.050Z,55.80
2022-08-09T23:31:15.965Z,55.50
2022-08-09T23:33:17.778Z,55.63
2022-08-09T23:35:19.564Z,55.69
2022-08-09T23:37:25.452Z,55.66
2022-08-09T23:39:27.541Z,55.29
2022-08-09T23:41:29.983Z,55.49
2022-08-09T23:43:32.457Z,56.39
2022-08-09T23:45:37.803Z,56.41
2022-08-09T23:47:40.286Z,56.57
2022-08-09T23:49:42.552Z,56.18
2022-08-09T23:51:44.435Z,56.86
2022-08-09T23:53:47.415Z,57.00
2022-08-09T23:55:54.569Z,57.78
2022-08-09T23:58:09.404Z,57.66
